sensor_id;sensor_type;location;lat;lon;timestamp;pressure;altitude;pressure_sealevel;temperature;humidity
788;BME280;16074;42.708;23.312;2022-09-13T00:00:47;141990.44;;;15.23;84.40
788;BME280;16074;42.708;23.312;2022-09-13T00:03:17;142006.19;;;15.29;83.83
788;BME280;16074;42.708;23.312;2022-09-13T00:05:46;142006.19;;;15.29;83.82
788;BME280;16074;42.708;23.312;2022-09-13T00:21:09;142077.56;;;15.58;82.15
788;BME280;16074;42.708;23.312;2022-09-13T00:23:38;142075.13;;;15.57;82.47
788;BME280;16074;42.708;23.312;2022-09-13T00:26:09;142067.88;;;15.54;82.47
788;BME280;16074;42.708;23.312;2022-09-13T00:28:38;142026.72;;;15.38;83.65
788;BME280;16074;42.708;23.312;2022-09-13T00:31:08;142032.81;;;15.40;83.29
788;BME280;16074;42.708;23.312;2022-09-13T00:33:37;142014.63;;;15.33;83.83
788;BME280;16074;42.708;23.312;2022-09-13T00:36:08;142015.88;;;15.33;84.04
788;BME280;16074;42.708;23.312;2022-09-13T00:38:37;142005.00;;;15.29;84.52
788;BME280;16074;42.708;23.312;2022-09-13T00:41:10;142030.38;;;15.39;84.31
788;BME280;16074;42.708;23.312;2022-09-13T00:43:45;142031.56;;;15.40;83.80
788;BME280;16074;42.708;23.312;2022-09-13T00:46:19;142024.31;;;15.37;84.37
788;BME280;16074;42.708;23.312;2022-09-13T00:48:52;142038.81;;;15.43;84.38
788;BME280;16074;42.708;23.312;2022-09-13T00:51:24;142007.41;;;15.30;84.47
788;BME280;16074;42.708;23.312;2022-09-13T00:53:55;142059.44;;;15.51;84.10
788;BME280;16074;42.708;23.312;2022-09-13T00:56:29;142087.22;;;15.62;83.54
788;BME280;16074;42.708;23.312;2022-09-13T00:59:01;142093.25;;;15.65;83.44
788;BME280;16074;42.708;23.312;2022-09-13T01:01:37;142118.69;;;15.75;83.23
788;BME280;16074;42.708;23.312;2022-09-13T01:04:08;142123.53;;;15.77;82.66
788;BME280;16074;42.708;23.312;2022-09-13T01:06:40;142159.81;;;15.92;82.17
788;BME280;16074;42.708;23.312;2022-09-13T01:09:10;142131.97;;;15.81;81.78
788;BME280;16074;42.708;23.312;2022-09-13T01:11:44;142121.13;;;15.76;82.12
788;BME280;16074;42.708;23.312;2022-09-13T01:14:16;142130.81;;;15.80;82.27
788;BME280;16074;42.708;23.312;2022-09-13T01:16:45;142128.38;;;15.79;81.71
788;BME280;16074;42.708;23.312;2022-09-13T01:19:14;142121.13;;;15.76;81.94
788;BME280;16074;42.708;23.312;2022-09-13T01:22:08;142089.66;;;15.63;82.63
788;BME280;16074;42.708;23.312;2022-09-13T01:28:05;142089.66;;;15.63;82.75
788;BME280;16074;42.708;23.312;2022-09-13T01:30:40;142079.97;;;15.59;83.24
788;BME280;16074;42.708;23.312;2022-09-13T01:33:31;142105.34;;;15.70;82.82
788;BME280;16074;42.708;23.312;2022-09-13T01:36:18;142111.44;;;15.72;82.76
788;BME280;16074;42.708;23.312;2022-09-13T01:38:55;142099.34;;;15.67;82.81
788;BME280;16074;42.708;23.312;2022-09-13T01:41:38;142115.03;;;15.74;83.05
788;BME280;16074;42.708;23.312;2022-09-13T01:44:14;142119.88;;;15.76;82.84
788;BME280;16074;42.708;23.312;2022-09-13T01:46:49;142089.66;;;15.63;83.19
788;BME280;16074;42.708;23.312;2022-09-13T01:49:27;142071.53;;;15.56;83.74
788;BME280;16074;42.708;23.312;2022-09-13T01:52:00;142095.69;;;15.66;83.60
788;BME280;16074;42.708;23.312;2022-09-13T01:54:36;142118.69;;;15.75;83.40
788;BME280;16074;42.708;23.312;2022-09-13T01:57:13;142094.50;;;15.65;83.46
788;BME280;16074;42.708;23.312;2022-09-13T01:59:48;142083.56;;;15.61;83.38
788;BME280;16074;42.708;23.312;2022-09-13T02:02:22;142093.25;;;15.65;83.61
788;BME280;16074;42.708;23.312;2022-09-13T02:04:57;142088.41;;;15.63;83.66
788;BME280;16074;42.708;23.312;2022-09-13T02:07:32;142094.50;;;15.65;83.80
788;BME280;16074;42.708;23.312;2022-09-13T02:10:06;142060.59;;;15.52;83.96
788;BME280;16074;42.708;23.312;2022-09-13T02:12:36;142081.16;;;15.60;83.92
788;BME280;16074;42.708;23.312;2022-09-13T02:15:11;142073.94;;;15.57;83.47
788;BME280;16074;42.708;23.312;2022-09-13T02:17:46;142096.91;;;15.66;83.61
788;BME280;16074;42.708;23.312;2022-09-13T02:20:18;142066.69;;;15.54;83.88
788;BME280;16074;42.708;23.312;2022-09-13T02:22:53;142072.72;;;15.56;83.85
788;BME280;16074;42.708;23.312;2022-09-13T02:25:25;142064.25;;;15.53;84.19
788;BME280;16074;42.708;23.312;2022-09-13T02:27:56;142060.59;;;15.52;84.12
788;BME280;16074;42.708;23.312;2022-09-13T02:30:27;142044.91;;;15.45;84.54
788;BME280;16074;42.708;23.312;2022-09-13T02:33:02;142029.16;;;15.39;85.06
788;BME280;16074;42.708;23.312;2022-09-13T02:35:33;142024.31;;;15.37;84.97
788;BME280;16074;42.708;23.312;2022-09-13T02:38:09;142017.06;;;15.34;85.13
788;BME280;16074;42.708;23.312;2022-09-13T02:40:42;141986.78;;;15.21;85.92
788;BME280;16074;42.708;23.312;2022-09-13T02:43:13;142012.22;;;15.32;85.59
788;BME280;16074;42.708;23.312;2022-09-13T02:46:01;141971.09;;;15.15;86.47
788;BME280;16074;42.708;23.312;2022-09-13T02:48:43;141959.00;;;15.10;87.43
788;BME280;16074;42.708;23.312;2022-09-13T02:51:17;141946.88;;;15.05;87.41
788;BME280;16074;42.708;23.312;2022-09-13T02:53:52;141908.19;;;14.89;88.34
788;BME280;16074;42.708;23.312;2022-09-13T02:56:28;141847.78;;;14.64;89.61
788;BME280;16074;42.708;23.312;2022-09-13T02:59:01;141835.69;;;14.59;91.07
788;BME280;16074;42.708;23.312;2022-09-13T03:01:32;141816.34;;;14.51;91.33
788;BME280;16074;42.708;23.312;2022-09-13T03:04:03;141783.72;;;14.37;91.69
788;BME280;16074;42.708;23.312;2022-09-13T03:06:32;141784.91;;;14.38;92.05
788;BME280;16074;42.708;23.312;2022-09-13T03:09:02;141783.72;;;14.37;91.78
788;BME280;16074;42.708;23.312;2022-09-13T03:11:44;141766.81;;;14.31;92.39
788;BME280;16074;42.708;23.312;2022-09-13T03:14:19;141789.75;;;14.40;92.12
788;BME280;16074;42.708;23.312;2022-09-13T03:17:14;141790.97;;;14.40;91.89
788;BME280;16074;42.708;23.312;2022-09-13T03:19:55;141817.53;;;14.51;91.42
788;BME280;16074;42.708;23.312;2022-09-13T03:22:45;141827.19;;;14.55;91.17
788;BME280;16074;42.708;23.312;2022-09-13T03:25:26;141839.28;;;14.60;90.63
788;BME280;16074;42.708;23.312;2022-09-13T03:28:02;141850.19;;;14.65;90.55
788;BME280;16074;42.708;23.312;2022-09-13T03:30:37;141850.19;;;14.65;90.35
788;BME280;16074;42.708;23.312;2022-09-13T03:33:16;141852.63;;;14.66;89.83
788;BME280;16074;42.708;23.312;2022-09-13T03:35:53;141827.19;;;14.55;90.04
788;BME280;16074;42.708;23.312;2022-09-13T03:38:27;141855.03;;;14.67;89.97
788;BME280;16074;42.708;23.312;2022-09-13T03:41:01;141848.97;;;14.64;90.13
788;BME280;16074;42.708;23.312;2022-09-13T03:43:35;141873.16;;;14.74;89.52
788;BME280;16074;42.708;23.312;2022-09-13T03:46:07;141890.06;;;14.81;88.87
788;BME280;16074;42.708;23.312;2022-09-13T03:48:38;141885.25;;;14.79;88.79
788;BME280;16074;42.708;23.312;2022-09-13T03:51:09;141888.84;;;14.81;88.59
788;BME280;16074;42.708;23.312;2022-09-13T03:53:41;141887.66;;;14.80;88.46
788;BME280;16074;42.708;23.312;2022-09-13T03:56:13;141898.50;;;14.85;88.19
788;BME280;16074;42.708;23.312;2022-09-13T03:58:42;141894.91;;;14.83;88.17
788;BME280;16074;42.708;23.312;2022-09-13T04:01:10;141893.69;;;14.83;87.61
788;BME280;16074;42.708;23.312;2022-09-13T04:03:39;141897.34;;;14.84;87.74
788;BME280;16074;42.708;23.312;2022-09-13T04:06:09;141893.69;;;14.83;87.52
788;BME280;16074;42.708;23.312;2022-09-13T04:08:37;141833.28;;;14.58;88.88
788;BME280;16074;42.708;23.312;2022-09-13T04:11:05;141781.31;;;14.36;90.05
788;BME280;16074;42.708;23.312;2022-09-13T04:13:35;141763.16;;;14.29;90.83
788;BME280;16074;42.708;23.312;2022-09-13T04:16:05;141760.75;;;14.28;90.93
788;BME280;16074;42.708;23.312;2022-09-13T04:18:33;141764.38;;;14.30;90.99
788;BME280;16074;42.708;23.312;2022-09-13T04:21:02;141770.41;;;14.32;90.84
788;BME280;16074;42.708;23.312;2022-09-13T04:23:32;141784.91;;;14.38;91.18
788;BME280;16074;42.708;23.312;2022-09-13T04:26:01;141780.09;;;14.36;91.08
788;BME280;16074;42.708;23.312;2022-09-13T04:28:29;141789.75;;;14.40;90.38
788;BME280;16074;42.708;23.312;2022-09-13T04:30:57;141794.59;;;14.42;90.47
788;BME280;16074;42.708;23.312;2022-09-13T04:33:26;141797.00;;;14.43;90.34
788;BME280;16074;42.708;23.312;2022-09-13T04:35:56;141809.09;;;14.48;89.85
788;BME280;16074;42.708;23.312;2022-09-13T04:38:25;141822.38;;;14.53;89.38
788;BME280;16074;42.708;23.312;2022-09-13T04:40:55;141817.53;;;14.51;89.16
788;BME280;16074;42.708;23.312;2022-09-13T04:43:24;141833.28;;;14.58;89.15
788;BME280;16074;42.708;23.312;2022-09-13T04:45:52;141836.88;;;14.59;89.27
788;BME280;16074;42.708;23.312;2022-09-13T04:48:20;141823.59;;;14.54;89.06
788;BME280;16074;42.708;23.312;2022-09-13T04:50:48;141826.00;;;14.55;88.46
788;BME280;16074;42.708;23.312;2022-09-13T04:53:16;141833.28;;;14.58;88.38
788;BME280;16074;42.708;23.312;2022-09-13T04:55:44;141836.88;;;14.59;88.72
788;BME280;16074;42.708;23.312;2022-09-13T04:58:14;141845.38;;;14.63;88.17
788;BME280;16074;42.708;23.312;2022-09-13T05:00:42;141840.53;;;14.61;87.67
788;BME280;16074;42.708;23.312;2022-09-13T05:03:10;141844.13;;;14.62;87.36
788;BME280;16074;42.708;23.312;2022-09-13T05:05:39;141855.03;;;14.67;87.36
788;BME280;16074;42.708;23.312;2022-09-13T05:08:07;141861.06;;;14.69;86.67
788;BME280;16074;42.708;23.312;2022-09-13T05:10:35;141859.88;;;14.69;86.30
788;BME280;16074;42.708;23.312;2022-09-13T05:13:03;141896.09;;;14.84;85.77
788;BME280;16074;42.708;23.312;2022-09-13T05:15:32;141888.84;;;14.81;85.38
788;BME280;16074;42.708;23.312;2022-09-13T05:18:01;141925.13;;;14.96;84.53
788;BME280;16074;42.708;23.312;2022-09-13T05:20:29;141950.50;;;15.06;84.24
788;BME280;16074;42.708;23.312;2022-09-13T05:22:57;141972.28;;;15.15;83.36
788;BME280;16074;42.708;23.312;2022-09-13T05:25:25;141991.63;;;15.23;82.31
788;BME280;16074;42.708;23.312;2022-09-13T05:27:53;142019.47;;;15.35;81.38
788;BME280;16074;42.708;23.312;2022-09-13T05:30:21;142047.31;;;15.46;81.25
788;BME280;16074;42.708;23.312;2022-09-13T05:32:50;142063.03;;;15.52;79.86
788;BME280;16074;42.708;23.312;2022-09-13T05:35:18;142092.06;;;15.64;80.22
788;BME280;16074;42.708;23.312;2022-09-13T05:37:48;142110.19;;;15.72;79.29
788;BME280;16074;42.708;23.312;2022-09-13T05:40:16;142131.97;;;15.81;78.73
788;BME280;16074;42.708;23.312;2022-09-13T05:42:44;142164.63;;;15.94;77.75
788;BME280;16074;42.708;23.312;2022-09-13T05:45:12;142191.28;;;16.05;77.42
788;BME280;16074;42.708;23.312;2022-09-13T05:47:41;142175.56;;;15.99;78.67
788;BME280;16074;42.708;23.312;2022-09-13T05:50:11;142220.34;;;16.17;78.64
788;BME280;16074;42.708;23.312;2022-09-13T05:52:58;142234.84;;;16.23;78.62
788;BME280;16074;42.708;23.312;2022-09-13T05:55:26;142255.41;;;16.32;78.73
788;BME280;16074;42.708;23.312;2022-09-13T05:57:55;142263.97;;;16.35;78.72
788;BME280;16074;42.708;23.312;2022-09-13T06:00:24;142265.16;;;16.36;77.03
788;BME280;16074;42.708;23.312;2022-09-13T06:02:52;142302.66;;;16.51;75.55
788;BME280;16074;42.708;23.312;2022-09-13T06:05:22;142331.75;;;16.63;75.15
788;BME280;16074;42.708;23.312;2022-09-13T06:07:55;142325.72;;;16.61;74.90
788;BME280;16074;42.708;23.312;2022-09-13T06:10:23;142343.84;;;16.68;74.40
788;BME280;16074;42.708;23.312;2022-09-13T06:12:51;142326.91;;;16.61;73.90
788;BME280;16074;42.708;23.312;2022-09-13T06:15:19;142324.47;;;16.60;74.31
788;BME280;16074;42.708;23.312;2022-09-13T06:17:47;142337.81;;;16.66;74.44
788;BME280;16074;42.708;23.312;2022-09-13T06:20:16;142372.91;;;16.80;74.14
788;BME280;16074;42.708;23.312;2022-09-13T06:22:46;142391.06;;;16.87;74.89
788;BME280;16074;42.708;23.312;2022-09-13T06:25:14;142409.28;;;16.95;74.81
788;BME280;16074;42.708;23.312;2022-09-13T06:27:43;142446.81;;;17.10;74.55
788;BME280;16074;42.708;23.312;2022-09-13T06:30:11;142472.22;;;17.21;72.84
788;BME280;16074;42.708;23.312;2022-09-13T06:32:41;142472.22;;;17.21;71.85
788;BME280;16074;42.708;23.312;2022-09-13T06:35:09;142480.72;;;17.24;71.37
788;BME280;16074;42.708;23.312;2022-09-13T06:37:37;142500.13;;;17.32;71.50
788;BME280;16074;42.708;23.312;2022-09-13T06:40:07;142524.38;;;17.42;71.75
788;BME280;16074;42.708;23.312;2022-09-13T06:42:35;142554.69;;;17.55;71.20
788;BME280;16074;42.708;23.312;2022-09-13T06:45:05;142591.00;;;17.70;70.29
788;BME280;16074;42.708;23.312;2022-09-13T06:47:33;142638.28;;;17.89;69.69
788;BME280;16074;42.708;23.312;2022-09-13T06:50:01;142672.22;;;18.03;69.35
788;BME280;16074;42.708;23.312;2022-09-13T06:52:30;142700.09;;;18.14;69.11
788;BME280;16074;42.708;23.312;2022-09-13T06:54:59;142704.94;;;18.16;69.15
788;BME280;16074;42.708;23.312;2022-09-13T06:57:30;142747.47;;;18.34;69.03
788;BME280;16074;42.708;23.312;2022-09-13T06:59:58;142797.19;;;18.54;67.43
788;BME280;16074;42.708;23.312;2022-09-13T07:02:26;142805.66;;;18.58;65.96
788;BME280;16074;42.708;23.312;2022-09-13T07:04:54;142861.47;;;18.81;65.43
788;BME280;16074;42.708;23.312;2022-09-13T07:07:22;142945.25;;;19.15;64.24
788;BME280;16074;42.708;23.312;2022-09-13T07:09:50;142985.28;;;19.31;61.67
788;BME280;16074;42.708;23.312;2022-09-13T07:12:18;143027.75;;;19.49;61.49
788;BME280;16074;42.708;23.312;2022-09-13T07:14:48;143100.63;;;19.79;60.82
788;BME280;16074;42.708;23.312;2022-09-13T07:17:16;143141.88;;;19.96;59.68
788;BME280;16074;42.708;23.312;2022-09-13T07:19:44;143194.13;;;20.17;58.48
788;BME280;16074;42.708;23.312;2022-09-13T07:22:12;143183.22;;;20.13;59.07
788;BME280;16074;42.708;23.312;2022-09-13T07:24:40;143201.41;;;20.20;57.06
788;BME280;16074;42.708;23.312;2022-09-13T07:27:08;143247.59;;;20.39;57.60
788;BME280;16074;42.708;23.312;2022-09-13T07:29:36;143316.84;;;20.67;57.03
788;BME280;16074;42.708;23.312;2022-09-13T07:32:06;143374.00;;;20.91;56.38
788;BME280;16074;42.708;23.312;2022-09-13T07:34:34;143457.88;;;21.25;55.78
788;BME280;16074;42.708;23.312;2022-09-13T07:37:02;143540.59;;;21.59;53.68
788;BME280;16074;42.708;23.312;2022-09-13T07:39:30;143606.28;;;21.86;52.22
788;BME280;16074;42.708;23.312;2022-09-13T07:41:58;143699.94;;;22.24;51.10
788;BME280;16074;42.708;23.312;2022-09-13T07:44:26;143741.34;;;22.41;51.51
788;BME280;16074;42.708;23.312;2022-09-13T07:46:54;143771.78;;;22.54;50.26
788;BME280;16074;42.708;23.312;2022-09-13T07:49:24;143838.72;;;22.81;49.50
788;BME280;16074;42.708;23.312;2022-09-13T07:51:52;143813.13;;;22.71;50.06
788;BME280;16074;42.708;23.312;2022-09-13T07:54:20;143829.00;;;22.77;49.92
788;BME280;16074;42.708;23.312;2022-09-13T07:56:48;143945.91;;;23.25;49.11
788;BME280;16074;42.708;23.312;2022-09-13T07:59:18;143993.41;;;23.44;48.52
788;BME280;16074;42.708;23.312;2022-09-13T08:01:47;144065.25;;;23.74;47.46
788;BME280;16074;42.708;23.312;2022-09-13T08:04:18;144115.25;;;23.94;46.51
788;BME280;16074;42.708;23.312;2022-09-13T08:06:48;144245.66;;;24.47;44.73
788;BME280;16074;42.708;23.312;2022-09-13T08:09:16;144307.88;;;24.73;42.80
788;BME280;16074;42.708;23.312;2022-09-13T08:11:47;144389.56;;;25.06;41.55
788;BME280;16074;42.708;23.312;2022-09-13T08:14:16;144398.09;;;25.10;40.94
788;BME280;16074;42.708;23.312;2022-09-13T08:16:45;144440.81;;;25.27;41.12
788;BME280;16074;42.708;23.312;2022-09-13T08:19:15;144514.03;;;25.57;39.85
788;BME280;16074;42.708;23.312;2022-09-13T08:21:45;144454.25;;;25.33;39.62
788;BME280;16074;42.708;23.312;2022-09-13T08:24:16;144429.84;;;25.23;40.76
788;BME280;16074;42.708;23.312;2022-09-13T08:26:45;144464.03;;;25.37;39.87
788;BME280;16074;42.708;23.312;2022-09-13T08:29:14;144492.06;;;25.48;40.87
788;BME280;16074;42.708;23.312;2022-09-13T08:31:42;144562.84;;;25.77;39.66
788;BME280;16074;42.708;23.312;2022-09-13T08:34:11;144621.44;;;26.01;39.06
788;BME280;16074;42.708;23.312;2022-09-13T08:36:40;144670.28;;;26.21;38.75
788;BME280;16074;42.708;23.312;2022-09-13T08:39:09;144732.59;;;26.46;38.69
788;BME280;16074;42.708;23.312;2022-09-13T08:44:43;144664.16;;;26.18;38.03
788;BME280;16074;42.708;23.312;2022-09-13T08:47:34;144561.59;;;25.76;36.04
788;BME280;16074;42.708;23.312;2022-09-13T08:50:14;144598.28;;;25.91;35.80
788;BME280;16074;42.708;23.312;2022-09-13T08:52:50;144612.91;;;25.97;36.54
788;BME280;16074;42.708;23.312;2022-09-13T08:55:26;144561.59;;;25.76;37.31
788;BME280;16074;42.708;23.312;2022-09-13T08:58:02;144605.59;;;25.94;36.70
788;BME280;16074;42.708;23.312;2022-09-13T09:00:36;144648.31;;;26.12;35.91
788;BME280;16074;42.708;23.312;2022-09-13T09:03:17;144671.47;;;26.21;36.72
788;BME280;16074;42.708;23.312;2022-09-13T09:05:48;144603.16;;;25.93;36.23
788;BME280;16074;42.708;23.312;2022-09-13T09:08:26;144599.47;;;25.92;36.33
788;BME280;16074;42.708;23.312;2022-09-13T09:10:58;144537.19;;;25.66;36.11
788;BME280;16074;42.708;23.312;2022-09-13T09:13:32;144431.06;;;25.23;35.72
788;BME280;16074;42.708;23.312;2022-09-13T09:16:06;144387.13;;;25.05;36.50
788;BME280;16074;42.708;23.312;2022-09-13T09:18:41;144352.97;;;24.91;37.57
788;BME280;16074;42.708;23.312;2022-09-13T09:21:15;144294.44;;;24.67;39.08
788;BME280;16074;42.708;23.312;2022-09-13T09:23:48;144305.44;;;24.72;40.33
788;BME280;16074;42.708;23.312;2022-09-13T09:26:18;144361.50;;;24.95;38.54
788;BME280;16074;42.708;23.312;2022-09-13T09:28:50;144434.75;;;25.25;37.00
788;BME280;16074;42.708;23.312;2022-09-13T09:31:29;144505.47;;;25.53;37.66
788;BME280;16074;42.708;23.312;2022-09-13T09:34:07;144582.38;;;25.85;36.77
788;BME280;16074;42.708;23.312;2022-09-13T09:36:38;144555.53;;;25.74;36.63
788;BME280;16074;42.708;23.312;2022-09-13T09:39:11;144498.16;;;25.50;36.92
788;BME280;16074;42.708;23.312;2022-09-13T09:41:42;144478.66;;;25.43;36.06
788;BME280;16074;42.708;23.312;2022-09-13T09:44:18;144529.88;;;25.63;36.82
788;BME280;16074;42.708;23.312;2022-09-13T09:46:49;144622.69;;;26.01;35.90
788;BME280;16074;42.708;23.312;2022-09-13T09:49:23;144650.75;;;26.13;35.80
788;BME280;16074;42.708;23.312;2022-09-13T09:52:14;144677.59;;;26.24;36.26
788;BME280;16074;42.708;23.312;2022-09-13T09:54:44;144695.91;;;26.31;35.88
788;BME280;16074;42.708;23.312;2022-09-13T09:57:15;144732.59;;;26.46;35.55
788;BME280;16074;42.708;23.312;2022-09-13T09:59:47;144684.94;;;26.27;34.90
788;BME280;16074;42.708;23.312;2022-09-13T10:02:18;144778.94;;;26.65;35.55
788;BME280;16074;42.708;23.312;2022-09-13T10:04:54;144775.31;;;26.64;34.99
788;BME280;16074;42.708;23.312;2022-09-13T10:07:27;144816.84;;;26.80;33.92
788;BME280;16074;42.708;23.312;2022-09-13T10:10:00;144741.09;;;26.50;34.70
788;BME280;16074;42.708;23.312;2022-09-13T10:12:31;144750.88;;;26.54;35.01
788;BME280;16074;42.708;23.312;2022-09-13T10:15:14;144829.06;;;26.85;34.32
788;BME280;16074;42.708;23.312;2022-09-13T10:17:59;144923.09;;;27.24;34.06
788;BME280;16074;42.708;23.312;2022-09-13T10:20:29;144946.34;;;27.33;32.98
788;BME280;16074;42.708;23.312;2022-09-13T10:23:10;145035.59;;;27.70;32.82
788;BME280;16074;42.708;23.312;2022-09-13T10:25:39;145113.81;;;28.01;32.37
788;BME280;16074;42.708;23.312;2022-09-13T10:28:15;145179.88;;;28.28;32.27
788;BME280;16074;42.708;23.312;2022-09-13T10:30:51;145159.03;;;28.20;32.32
788;BME280;16074;42.708;23.312;2022-09-13T10:33:25;144918.22;;;27.22;33.10
788;BME280;16074;42.708;23.312;2022-09-13T10:35:56;144984.22;;;27.49;33.00
788;BME280;16074;42.708;23.312;2022-09-13T10:38:29;144853.44;;;26.95;34.30
788;BME280;16074;42.708;23.312;2022-09-13T10:40:58;144791.16;;;26.70;34.28
788;BME280;16074;42.708;23.312;2022-09-13T10:43:29;144805.81;;;26.76;34.80
788;BME280;16074;42.708;23.312;2022-09-13T10:46:02;144776.50;;;26.64;34.04
788;BME280;16074;42.708;23.312;2022-09-13T10:48:44;144787.53;;;26.69;33.96
788;BME280;16074;42.708;23.312;2022-09-13T10:51:28;144736.22;;;26.48;34.36
788;BME280;16074;42.708;23.312;2022-09-13T10:54:15;144709.31;;;26.37;34.26
788;BME280;16074;42.708;23.312;2022-09-13T10:56:44;144827.81;;;26.85;32.79
788;BME280;16074;42.708;23.312;2022-09-13T10:59:20;144760.66;;;26.58;33.27
788;BME280;16074;42.708;23.312;2022-09-13T11:01:59;144899.91;;;27.14;32.65
788;BME280;16074;42.708;23.312;2022-09-13T11:04:50;144915.78;;;27.21;32.62
788;BME280;16074;42.708;23.312;2022-09-13T11:07:35;145044.13;;;27.73;31.70
788;BME280;16074;42.708;23.312;2022-09-13T11:10:10;145079.56;;;27.88;32.68
788;BME280;16074;42.708;23.312;2022-09-13T11:12:45;144956.13;;;27.37;31.50
788;BME280;16074;42.708;23.312;2022-09-13T11:15:26;144912.13;;;27.19;31.84
788;BME280;16074;42.708;23.312;2022-09-13T11:18:15;144840.03;;;26.90;32.56
788;BME280;16074;42.708;23.312;2022-09-13T11:20:54;144843.66;;;26.91;32.17
788;BME280;16074;42.708;23.312;2022-09-13T11:23:54;144954.88;;;27.37;32.71
788;BME280;16074;42.708;23.312;2022-09-13T11:26:34;144924.34;;;27.24;31.46
788;BME280;16074;42.708;23.312;2022-09-13T11:29:19;145022.09;;;27.64;31.37
788;BME280;16074;42.708;23.312;2022-09-13T11:31:59;145161.47;;;28.21;31.92
788;BME280;16074;42.708;23.312;2022-09-13T11:34:38;145269.09;;;28.65;30.76
788;BME280;16074;42.708;23.312;2022-09-13T11:37:18;145314.41;;;28.83;30.92
788;BME280;16074;42.708;23.312;2022-09-13T11:40:00;145436.78;;;29.33;30.13
788;BME280;16074;42.708;23.312;2022-09-13T11:42:39;145506.56;;;29.61;29.71
788;BME280;16074;42.708;23.312;2022-09-13T11:45:32;145655.97;;;30.22;28.64
788;BME280;16074;42.708;23.312;2022-09-13T11:48:28;145648.63;;;30.19;28.37
788;BME280;16074;42.708;23.312;2022-09-13T11:51:04;145675.56;;;30.30;28.33
788;BME280;16074;42.708;23.312;2022-09-13T11:53:50;145681.66;;;30.33;27.79
788;BME280;16074;42.708;23.312;2022-09-13T11:56:26;145686.56;;;30.35;27.73
788;BME280;16074;42.708;23.312;2022-09-13T11:59:01;145719.63;;;30.48;28.09
788;BME280;16074;42.708;23.312;2022-09-13T12:01:44;145741.72;;;30.57;28.04
788;BME280;16074;42.708;23.312;2022-09-13T12:04:19;145733.16;;;30.54;27.70
788;BME280;16074;42.708;23.312;2022-09-13T12:06:56;145731.91;;;30.53;27.78
788;BME280;16074;42.708;23.312;2022-09-13T12:09:30;145611.88;;;30.04;27.71
788;BME280;16074;42.708;23.312;2022-09-13T12:12:03;145485.75;;;29.53;28.01
788;BME280;16074;42.708;23.312;2022-09-13T12:14:41;145397.59;;;29.17;28.64
788;BME280;16074;42.708;23.312;2022-09-13T12:17:20;145365.78;;;29.04;29.46
788;BME280;16074;42.708;23.312;2022-09-13T12:19:51;145256.91;;;28.60;29.25
788;BME280;16074;42.708;23.312;2022-09-13T12:22:23;145297.28;;;28.76;28.81
788;BME280;16074;42.708;23.312;2022-09-13T12:24:57;145362.13;;;29.03;30.29
788;BME280;16074;42.708;23.312;2022-09-13T12:27:33;145479.63;;;29.50;29.50
788;BME280;16074;42.708;23.312;2022-09-13T12:30:13;145573.88;;;29.89;28.35
788;BME280;16074;42.708;23.312;2022-09-13T12:32:42;145651.06;;;30.20;28.29
788;BME280;16074;42.708;23.312;2022-09-13T12:35:18;145711.06;;;30.45;27.98
788;BME280;16074;42.708;23.312;2022-09-13T12:38:07;145742.97;;;30.58;27.83
788;BME280;16074;42.708;23.312;2022-09-13T12:40:46;145752.72;;;30.61;27.64
788;BME280;16074;42.708;23.312;2022-09-13T12:43:44;145783.38;;;30.74;27.31
788;BME280;16074;42.708;23.312;2022-09-13T12:49:16;145945.16;;;31.40;27.49
788;BME280;16074;42.708;23.312;2022-09-13T12:52:01;145921.84;;;31.30;27.38
788;BME280;16074;42.708;23.312;2022-09-13T12:54:44;145925.53;;;31.32;26.65
788;BME280;16074;42.708;23.312;2022-09-13T12:57:29;146021.16;;;31.71;26.60
788;BME280;16074;42.708;23.312;2022-09-13T13:00:10;146060.41;;;31.86;26.00
788;BME280;16074;42.708;23.312;2022-09-13T13:02:43;145941.44;;;31.38;26.64
788;BME280;16074;42.708;23.312;2022-09-13T13:05:23;145749.06;;;30.60;28.02
788;BME280;16074;42.708;23.312;2022-09-13T13:07:55;145654.72;;;30.22;27.98
788;BME280;16074;42.708;23.312;2022-09-13T13:10:27;145644.91;;;30.18;28.45
788;BME280;16074;42.708;23.312;2022-09-13T13:13:11;145697.56;;;30.39;29.08
788;BME280;16074;42.708;23.312;2022-09-13T13:16:01;145756.41;;;30.63;27.93
788;BME280;16074;42.708;23.312;2022-09-13T13:18:41;145799.28;;;30.80;27.35
788;BME280;16074;42.708;23.312;2022-09-13T13:21:32;145711.06;;;30.45;27.72
788;BME280;16074;42.708;23.312;2022-09-13T13:27:41;145414.75;;;29.24;29.43
788;BME280;16074;42.708;23.312;2022-09-13T13:30:40;145223.88;;;28.46;29.83
788;BME280;16074;42.708;23.312;2022-09-13T13:33:14;145173.69;;;28.26;30.43
788;BME280;16074;42.708;23.312;2022-09-13T13:35:44;145041.69;;;27.72;30.99
788;BME280;16074;42.708;23.312;2022-09-13T13:38:30;144888.94;;;27.10;31.61
788;BME280;16074;42.708;23.312;2022-09-13T13:43:52;145088.16;;;27.91;32.15
788;BME280;16074;42.708;23.312;2022-09-13T13:46:26;145113.81;;;28.01;30.96
788;BME280;16074;42.708;23.312;2022-09-13T13:48:55;145069.78;;;27.84;30.99
788;BME280;16074;42.708;23.312;2022-09-13T13:51:25;145057.56;;;27.79;31.11
788;BME280;16074;42.708;23.312;2022-09-13T13:54:02;145083.25;;;27.89;31.44
788;BME280;16074;42.708;23.312;2022-09-13T13:56:34;145023.34;;;27.65;31.67
788;BME280;16074;42.708;23.312;2022-09-13T13:59:16;145035.59;;;27.70;31.29
788;BME280;16074;42.708;23.312;2022-09-13T14:01:49;145159.03;;;28.20;31.95